^^
Datos históricos de la estación: Murcia-Puente Tocinos
Diario Informe para Enero 18, 2019 Unidades:  Métrico    Ingés   Ambas
Diario Semanal Mensual Anual
  Máxima: Mínima: Promedio:
Temperatura: 37.2 °C 22.6 °C 29.2 °C
Punto de rocio: 22.6 °C 11.3 °C 17.6 °C
Humedad: 87% 21.6% 53%
Velocidad viento: 18km/h 0km/h 7.9km/h
Racha viento: 33.8km/h - -
Viento- - Este
Presión: 1012.0 hPa 1008.0 hPa -
Precipitación: 0.0 mm    
 
 
Tabla de datos para Enero 18, 2019
Hora Temperatura Punto de rocio Presión Viento Velocidad viento Racha viento Humedad Intensidad lluvia(por hora) Nubes
00:04 26.1 °C 21.6 °C 1011.9 hPa NNE 8.7 km/h 13 km/h 76.1% 0.0 mm
00:09 26 °C 21.6 °C 1011.9 hPa NNE 8.4 km/h 11.3 km/h 77% 0.0 mm
00:14 25.9 °C 21.7 °C 1011.9 hPa NNE 7.6 km/h 13 km/h 77.8% 0.0 mm
00:19 25.8 °C 21.8 °C 1011.9 hPa NNE 7.6 km/h 12.9 km/h 78.6% 0.0 mm
00:24 25.8 °C 22 °C 1011.8 hPa NNE 7.6 km/h 14 km/h 79.3% 0.0 mm
00:29 25.7 °C 22.1 °C 1011.8 hPa NNE 7.8 km/h 15.6 km/h 80.5% 0.0 mm
00:34 25.7 °C 22.3 °C 1011.8 hPa NE 8.4 km/h 16.1 km/h 81.5% 0.0 mm
00:39 25.6 °C 22.4 °C 1011.8 hPa NE 8.5 km/h 14.5 km/h 82.4% 0.0 mm
00:44 25.6 °C 22.4 °C 1011.8 hPa NE 8.7 km/h 13 km/h 83% 0.0 mm
00:49 25.4 °C 22.5 °C 1012.0 hPa NNE 8.2 km/h 13 km/h 83.9% 0.0 mm
00:54 25.4 °C 22.5 °C 1012.0 hPa NNE 6.9 km/h 11.3 km/h 84.2% 0.0 mm
00:59 25.3 °C 22.6 °C 1012.0 hPa NNE 6.6 km/h 11.3 km/h 85% 0.0 mm
01:04 25.3 °C 22.6 °C 1012.0 hPa NE 5.8 km/h 9.7 km/h 85% 0.0 mm
01:09 25.2 °C 22.5 °C 1011.9 hPa NE 5.8 km/h 9.7 km/h 85% 0.0 mm
01:14 25.2 °C 22.6 °C 1011.9 hPa NE 5.8 km/h 10 km/h 85.9% 0.0 mm
01:19 25.1 °C 22.6 °C 1012.0 hPa ENE 6 km/h 9.7 km/h 86% 0.0 mm
01:24 25.1 °C 22.6 °C 1012.0 hPa NNE 6.5 km/h 9.7 km/h 86% 0.0 mm
01:29 25 °C 22.5 °C 1012.0 hPa NNE 6 km/h 9.5 km/h 86% 0.0 mm
01:34 24.9 °C 22.4 °C 1012.0 hPa NE 5 km/h 9.7 km/h 86% 0.0 mm
01:39 24.8 °C 22.3 °C 1011.9 hPa NNE 5 km/h 9.7 km/h 86% 0.0 mm
01:44 24.8 °C 22.3 °C 1011.9 hPa NE 5 km/h 9.7 km/h 86.1% 0.0 mm
01:49 24.8 °C 22.3 °C 1012.0 hPa North 4.7 km/h 8.4 km/h 86.4% 0.0 mm
01:54 24.8 °C 22.5 °C 1012.0 hPa NNO 3.9 km/h 8 km/h 87% 0.0 mm
01:59 24.8 °C 22.5 °C 1012.0 hPa North 3.6 km/h 8.4 km/h 87% 0.0 mm
02:04 24.8 °C 22.5 °C 1012.0 hPa North 3.2 km/h 8 km/h 87% 0.0 mm
02:09 24.8 °C 22.5 °C 1011.8 hPa NNE 3.4 km/h 8 km/h 87% 0.0 mm
02:14 24.7 °C 22.4 °C 1011.8 hPa NNE 3.9 km/h 8 km/h 87% 0.0 mm
02:19 24.7 °C 22.4 °C 1011.8 hPa NNE 4.1 km/h 8 km/h 87% 0.0 mm
02:24 24.6 °C 22.3 °C 1011.7 hPa NNE 4.7 km/h 8.4 km/h 87% 0.0 mm
02:29 24.6 °C 22.2 °C 1011.7 hPa NE 4.7 km/h 8.4 km/h 86.6% 0.0 mm
02:34 24.5 °C 22 °C 1011.7 hPa NNE 4.7 km/h 8 km/h 86% 0.0 mm
02:39 24.4 °C 21.9 °C 1011.7 hPa NE 4.2 km/h 5.6 km/h 86% 0.0 mm
02:44 24.4 °C 21.7 °C 1011.7 hPa Este 3.2 km/h 5.6 km/h 85.1% 0.0 mm
02:49 24.3 °C 21.7 °C 1011.7 hPa Este 2.4 km/h 4.8 km/h 85% 0.0 mm
02:54 24.3 °C 21.5 °C 1011.6 hPa Calm   2.3 km/h 84.2% 0.0 mm
02:59 24.3 °C 21.6 °C 1011.6 hPa Calm   1.6 km/h 84.8% 0.0 mm
03:04 24.3 °C 21.6 °C 1011.6 hPa Calm   4.7 km/h 85% 0.0 mm
03:09 24.3 °C 21.6 °C 1011.6 hPa NE 0.7 km/h 4.8 km/h 84.7% 0.0 mm
03:14 24.3 °C 21.1 °C 1011.6 hPa NE 2.2 km/h   82.4% 0.0 mm
03:19 24.2 °C 21.2 °C 1011.6 hPa NE 1.6 km/h   83.5% 0.0 mm
03:24 24.2 °C 21 °C 1011.4 hPa Calm     82.3% 0.0 mm
03:29 24.2 °C 20.7 °C 1011.4 hPa Calm     81% 0.0 mm
03:34 24.1 °C 20.3 °C 1011.4 hPa Calm     79.3% 0.0 mm
03:39 24 °C 20 °C 1011.3 hPa Calm     78% 0.0 mm
03:44 24 °C 19.9 °C 1011.3 hPa Calm     78% 0.0 mm
03:49 24 °C 19.9 °C 1011.3 hPa Calm     77.8% 0.0 mm
03:54 24 °C 19.8 °C 1011.2 hPa Calm     77.4% 0.0 mm
03:59 24.1 °C 19.8 °C 1011.2 hPa Calm     76.9% 0.0 mm
04:04 23.9 °C 18.2 °C 1011.2 hPa Calm   7.6 km/h 70.4% 0.0 mm
04:09 23.6 °C 15.4 °C 1011.1 hPa Este 1.1 km/h 8 km/h 60.2% 0.0 mm
04:14 23.5 °C 14.8 °C 1011.1 hPa Este 3.9 km/h 8 km/h 57.9% 0.0 mm
04:19 23.6 °C 14.6 °C 1011.1 hPa Este 3.6 km/h 5.6 km/h 57.1% 0.0 mm
04:24 23.7 °C 14.6 °C 1011.0 hPa Este 2.9 km/h 2.3 km/h 57.1% 0.0 mm
04:29 23.7 °C 14.9 °C 1011.0 hPa Este 2.1 km/h 2.3 km/h 57.9% 0.0 mm
04:34 23.8 °C 15 °C 1011.0 hPa Calm   4.7 km/h 58% 0.0 mm
04:39 23.8 °C 15.2 °C 1010.9 hPa Calm   4.8 km/h 58.6% 0.0 mm
04:44 23.8 °C 14.3 °C 1010.9 hPa Calm   7.4 km/h 55.4% 0.0 mm
04:49 23.7 °C 13.9 °C 1010.9 hPa Este 0.9 km/h 8 km/h 54% 0.0 mm
04:54 23.7 °C 13.7 °C 1010.7 hPa Este 3.2 km/h 6.4 km/h 53.6% 0.0 mm
04:59 23.6 °C 13.5 °C 1010.7 hPa Este 2.9 km/h 4.8 km/h 53% 0.0 mm
05:04 23.6 °C 13.5 °C 1010.7 hPa Este 2.2 km/h   53.3% 0.0 mm
05:09 23.6 °C 13.5 °C 1010.5 hPa Este 1.6 km/h 3.7 km/h 53.1% 0.0 mm
05:14 23.6 °C 13.7 °C 1010.5 hPa Calm   3.7 km/h 54% 0.0 mm
05:19 23.7 °C 13.6 °C 1010.5 hPa Calm   5.6 km/h 53.4% 0.0 mm
05:24 23.7 °C 14.1 °C 1010.4 hPa Calm   5.6 km/h 54.7% 0.0 mm
05:29 23.8 °C 14.5 °C 1010.4 hPa Este 0.9 km/h 4.8 km/h 55.9% 0.0 mm
05:34 23.8 °C 14.2 °C 1010.4 hPa ENE 2.9 km/h 5.8 km/h 54.8% 0.0 mm
05:39 23.7 °C 13.4 °C 1010.4 hPa NE 3 km/h 7.4 km/h 52.3% 0.0 mm
05:44 23.5 °C 12.8 °C 1010.4 hPa NE 3.2 km/h 8 km/h 50.9% 0.0 mm
05:49 23.4 °C 12.4 °C 1010.4 hPa ENE 3.2 km/h 8 km/h 50.2% 0.0 mm
05:54 23.4 °C 12.8 °C 1010.3 hPa ENE 3.2 km/h 7.4 km/h 51.4% 0.0 mm
05:59 23.4 °C 13.2 °C 1010.3 hPa ENE 3.1 km/h 8 km/h 52.9% 0.0 mm
06:04 23.4 °C 14.5 °C 1010.3 hPa ENE 2.9 km/h 5.6 km/h 57.6% 0.0 mm
06:09 23.4 °C 15.5 °C 1010.3 hPa ENE 2.9 km/h 4.8 km/h 61.3% 0.0 mm
06:14 23.5 °C 17 °C 1010.3 hPa ENE 2.9 km/h 5.6 km/h 67% 0.0 mm
06:19 23.4 °C 17.5 °C 1010.3 hPa ENE 2.9 km/h 4.8 km/h 69.5% 0.0 mm
06:24 23.3 °C 17.6 °C 1010.3 hPa ENE 2.9 km/h 3.9 km/h 70.1% 0.0 mm
06:29 23.2 °C 16.5 °C 1010.3 hPa ENE 2.7 km/h 5.8 km/h 65.9% 0.0 mm
06:34 23.1 °C 16.3 °C 1010.4 hPa ENE 2.2 km/h 6.4 km/h 65.5% 0.0 mm
06:39 23.1 °C 17.1 °C 1010.4 hPa ENE 2.2 km/h 3.9 km/h 69.1% 0.0 mm
06:44 23 °C 17.1 °C 1010.4 hPa ENE 2.2 km/h 3.7 km/h 69.8% 0.0 mm
06:49 22.9 °C 16.9 °C 1010.4 hPa ENE 1.6 km/h   69.3% 0.0 mm
06:54 22.7 °C 16.1 °C 1010.4 hPa Calm     66% 0.0 mm
06:59 22.6 °C 15.6 °C 1010.4 hPa Calm     64.4% 0.0 mm
07:04 22.6 °C 15.1 °C 1010.5 hPa Calm     62.6% 0.0 mm
07:09 22.6 °C 14.9 °C 1010.5 hPa Calm     62% 0.0 mm
07:14 22.6 °C 14.8 °C 1010.5 hPa Calm   5.8 km/h 61.4% 0.0 mm
07:19 22.7 °C 14.6 °C 1010.7 hPa SE 0.6 km/h 7.4 km/h 60.4% 0.0 mm
07:24 22.7 °C 14.6 °C 1010.7 hPa SE 2.2 km/h 8 km/h 60% 0.0 mm
07:29 22.8 °C 14.8 °C 1010.7 hPa SE 2.5 km/h 7.4 km/h 60.7% 0.0 mm
07:34 22.9 °C 15.2 °C 1010.7 hPa SE 3.2 km/h 8 km/h 61.9% 0.0 mm
07:39 22.9 °C 15.5 °C 1010.6 hPa SE 3.2 km/h 6.4 km/h 62.9% 0.0 mm
07:44 22.9 °C 15.8 °C 1010.6 hPa SE 3.2 km/h 5.8 km/h 64.2% 0.0 mm
07:49 23 °C 16.3 °C 1010.6 hPa SE 3.2 km/h 6.4 km/h 66% 0.0 mm
07:54 23.1 °C 16.8 °C 1010.6 hPa SE 3.2 km/h 6.4 km/h 67.9% 0.0 mm
07:59 23.2 °C 17.2 °C 1010.6 hPa SE 2.9 km/h 4.8 km/h 69% 0.0 mm
08:04 23.2 °C 17.2 °C 1010.7 hPa SE 2.2 km/h 3.2 km/h 69% 0.0 mm
08:09 23.3 °C 17.3 °C 1010.7 hPa SSE 1.6 km/h 5.8 km/h 69% 0.0 mm
08:14 23.4 °C 17.2 °C 1010.7 hPa Calm   6.4 km/h 68% 0.0 mm
08:19 23.6 °C 17.5 °C 1010.7 hPa SSE 0.9 km/h 8 km/h 69% 0.0 mm
08:24 23.7 °C 17.6 °C 1010.7 hPa SSO 3.2 km/h 8.4 km/h 68.7% 0.0 mm
08:29 23.8 °C 17.5 °C 1010.7 hPa SSO 3.6 km/h 9.5 km/h 67.8% 0.0 mm
08:34 24 °C 17.5 °C 1010.7 hPa SSO 4.7 km/h 11.1 km/h 67% 0.0 mm
08:39 24.1 °C 17.6 °C 1010.7 hPa SSO 5.3 km/h 11.3 km/h 67% 0.0 mm
08:44 24.2 °C 17.6 °C 1010.7 hPa Sur 6.9 km/h 11.3 km/h 67% 0.0 mm
08:49 24.3 °C 17.7 °C 1010.8 hPa SSO 6.8 km/h 12.2 km/h 67% 0.0 mm
08:54 24.3 °C 17.8 °C 1010.8 hPa SO 6.5 km/h 13 km/h 67% 0.0 mm
08:59 24.5 °C 18 °C 1010.8 hPa SSO 6 km/h 9.7 km/h 67.1% 0.0 mm
09:04 24.7 °C 18.1 °C 1010.8 hPa SSO 5 km/h 9.7 km/h 66.7% 0.0 mm
09:09 24.8 °C 17.9 °C 1010.8 hPa SSO 5.2 km/h 10 km/h 65.7% 0.0 mm
09:14 24.9 °C 18.1 °C 1010.8 hPa SSO 5.8 km/h 10 km/h 66% 0.0 mm
09:19 25 °C 18 °C 1010.9 hPa SSO 6 km/h 9.7 km/h 65.2% 0.0 mm
09:24 25.1 °C 18 °C 1010.9 hPa SSO 6.5 km/h 9.7 km/h 64.9% 0.0 mm
09:29 25.2 °C 17.8 °C 1010.9 hPa Oeste 6 km/h 9.7 km/h 63.3% 0.0 mm
09:34 25.4 °C 17.4 °C 1011.0 hPa OSO 5 km/h 10 km/h 61.4% 0.0 mm
09:39 25.6 °C 17.2 °C 1011.0 hPa Oeste 5 km/h 9.7 km/h 60% 0.0 mm
09:44 25.7 °C 17.2 °C 1011.0 hPa Oeste 5 km/h 9.7 km/h 59.2% 0.0 mm
09:49 25.8 °C 17.2 °C 1011.1 hPa OSO 5.2 km/h 10 km/h 59% 0.0 mm
09:54 26 °C 17.4 °C 1011.1 hPa OSO 5.8 km/h 9.7 km/h 59% 0.0 mm
09:59 26.2 °C 17.3 °C 1011.1 hPa SO 5.4 km/h 9.7 km/h 58.1% 0.0 mm
10:04 26.5 °C 17.6 °C 1011.2 hPa SO 4.7 km/h 8 km/h 58% 0.0 mm
10:09 26.9 °C 17.5 °C 1011.2 hPa OSO 4.1 km/h 7.4 km/h 56.5% 0.0 mm
10:14 27.2 °C 17.7 °C 1011.2 hPa SSO 2.9 km/h 9.5 km/h 56.1% 0.0 mm
10:19 27.4 °C 17.8 °C 1011.2 hPa OSO 3 km/h 9.7 km/h 55.8% 0.0 mm
10:24 27.6 °C 17.5 °C 1011.1 hPa Oeste 3.2 km/h 8 km/h 54.3% 0.0 mm
10:29 27.7 °C 17.6 °C 1011.1 hPa Oeste 3.2 km/h 8 km/h 54.3% 0.0 mm
10:34 27.8 °C 17.7 °C 1011.1 hPa OSO 3.2 km/h 7.4 km/h 54.1% 0.0 mm
10:39 28.2 °C 17.9 °C 1011.1 hPa SO 2.9 km/h 8 km/h 53.6% 0.0 mm
10:44 28.3 °C 17.7 °C 1011.1 hPa Sur 2.2 km/h 8 km/h 52.5% 0.0 mm
10:49 28.5 °C 17.7 °C 1011.1 hPa SO 2.7 km/h 8 km/h 52% 0.0 mm
10:54 28.8 °C 17.5 °C 1011.1 hPa Este 3.9 km/h 9.5 km/h 50.4% 0.0 mm
10:59 29.1 °C 17.3 °C 1011.1 hPa Este 3.9 km/h 9.7 km/h 48.9% 0.0 mm
11:04 29.2 °C 17.1 °C 1011.3 hPa ENE 3.9 km/h 8.4 km/h 48% 0.0 mm
11:09 29.3 °C 16.8 °C 1011.3 hPa NE 4.1 km/h 8 km/h 46.7% 0.0 mm
11:14 29.6 °C 16.3 °C 1011.3 hPa Este 4.7 km/h 8 km/h 44.7% 0.0 mm
11:19 30 °C 16.5 °C 1011.3 hPa NE 4.2 km/h 6.4 km/h 44.1% 0.0 mm
11:24 30.5 °C 16.8 °C 1011.2 hPa NNE 2.9 km/h 10.3 km/h 44% 0.0 mm
11:29 30.5 °C 16.8 °C 1011.2 hPa NNE 3.8 km/h 11.3 km/h 43.6% 0.0 mm
11:34 30.4 °C 16.8 °C 1011.2 hPa ENE 5.8 km/h 10 km/h 43.9% 0.0 mm
11:39 30.5 °C 16.8 °C 1011.2 hPa ENE 5.8 km/h 9.7 km/h 43.9% 0.0 mm
11:44 30.7 °C 16.8 °C 1011.2 hPa NE 5.8 km/h 10 km/h 43.2% 0.0 mm
11:49 30.8 °C 16.7 °C 1011.2 hPa NNE 6 km/h 11.9 km/h 42.7% 0.0 mm
11:54 30.8 °C 16.4 °C 1011.1 hPa NE 6.5 km/h 13 km/h 41.9% 0.0 mm
11:59 31 °C 15.9 °C 1011.1 hPa NE 6.8 km/h 16.7 km/h 40.2% 0.0 mm
12:04 31.2 °C 16 °C 1011.1 hPa NNE 7.6 km/h 16.1 km/h 40.1% 0.0 mm
12:09 31.3 °C 16.2 °C 1011.1 hPa NNE 7.8 km/h 14.8 km/h 40.3% 0.0 mm
12:14 31.5 °C 16.1 °C 1011.1 hPa NNE 8.4 km/h 18.3 km/h 39.6% 0.0 mm
12:19 31.7 °C 16.1 °C 1011.1 hPa NNE 8.5 km/h 19.3 km/h 39.3% 0.0 mm
12:24 31.8 °C 16.2 °C 1010.9 hPa NNE 8.7 km/h 19.3 km/h 39% 0.0 mm
12:29 31.9 °C 16.1 °C 1010.9 hPa NNE 9.2 km/h 16.7 km/h 38.6% 0.0 mm
12:34 32.1 °C 16.4 °C 1010.9 hPa NE 10.3 km/h 16.1 km/h 38.9% 0.0 mm
12:39 32.2 °C 16.2 °C 1010.8 hPa NNE 10.2 km/h 16.7 km/h 38.3% 0.0 mm
12:44 32.3 °C 16.6 °C 1010.8 hPa NE 10 km/h 16.1 km/h 39% 0.0 mm
12:49 32.7 °C 17.3 °C 1010.8 hPa NE 9.3 km/h 16.1 km/h 40% 0.0 mm
12:54 33.2 °C 17.8 °C 1010.7 hPa NE 7.6 km/h 15.6 km/h 40% 0.0 mm
12:59 33.4 °C 18.2 °C 1010.7 hPa NNE 7.9 km/h 16.7 km/h 40.6% 0.0 mm
13:04 33.4 °C 18.1 °C 1010.7 hPa NNE 8.7 km/h 17.2 km/h 40.5% 0.0 mm
13:09 33.4 °C 18 °C 1010.5 hPa NE 9 km/h 18.5 km/h 40% 0.0 mm
13:14 33.4 °C 18 °C 1010.5 hPa NNE 9.5 km/h 19.3 km/h 40% 0.0 mm
13:19 33.6 °C 18.1 °C 1010.5 hPa NE 9.5 km/h 20.4 km/h 39.8% 0.0 mm
13:24 33.7 °C 17.9 °C 1010.4 hPa NNE 9.5 km/h 20.9 km/h 39.1% 0.0 mm
13:29 34 °C 18.2 °C 1010.4 hPa NNE 9.6 km/h 20.9 km/h 39.2% 0.0 mm
13:34 34.2 °C 18.6 °C 1010.4 hPa NNE 10 km/h 20.9 km/h 39.8% 0.0 mm
13:39 34.3 °C 18.8 °C 1010.2 hPa NNE 10.5 km/h 22.5 km/h 39.9% 0.0 mm
13:40 34.4 °C 18.8 °C 1010.2 hPa NNE 11.8 km/h 22.5 km/h 40% 0.0 mm
14:14 35.7 °C 17.9 °C 1009.9 hPa SE 11.1 km/h 22.5 km/h 35% 0.0 mm
14:19 35.7 °C 17.9 °C 1010.2 hPa ESE 11.5 km/h 27.8 km/h 35.2% 0.0 mm
14:24 35.6 °C 18.3 °C 1009.8 hPa ESE 13 km/h 27.4 km/h 36.2% 0.0 mm
14:29 35.7 °C 18.4 °C 1009.8 hPa ESE 13.2 km/h 26.2 km/h 36.1% 0.0 mm
14:34 35.5 °C 17.8 °C 1009.8 hPa ESE 14 km/h 28.2 km/h 35.2% 0.0 mm
14:39 35.4 °C 17.6 °C 1009.7 hPa ESE 14.7 km/h 27.4 km/h 35% 0.0 mm
14:44 35.6 °C 17.2 °C 1009.7 hPa ESE 17.2 km/h 29.6 km/h 33.9% 0.0 mm
14:49 35.6 °C 16.2 °C 1009.7 hPa ESE 17.2 km/h 29.6 km/h 31.6% 0.0 mm
14:54 35.6 °C 15.6 °C 1009.6 hPa SE 17.2 km/h 29.8 km/h 30.4% 0.0 mm
14:59 35.7 °C 15.9 °C 1009.6 hPa SE 17 km/h 33.3 km/h 31% 0.0 mm
15:04 35.8 °C 16.2 °C 1009.6 hPa ESE 16.4 km/h 33.8 km/h 31.3% 0.0 mm
15:09 35.7 °C 16.4 °C 1009.5 hPa SE 16.2 km/h 29.6 km/h 31.7% 0.0 mm
15:14 35.7 °C 16.1 °C 1009.5 hPa ESE 15.6 km/h 29.8 km/h 31.4% 0.0 mm
15:19 35.7 °C 16.1 °C 1009.6 hPa SE 15.6 km/h 30.6 km/h 31.3% 0.0 mm
15:24 35.8 °C 16.1 °C 1009.6 hPa SE 15.6 km/h 25.9 km/h 31% 0.0 mm
15:29 35.8 °C 16.1 °C 1009.6 hPa SE 15.4 km/h 24.1 km/h 31.1% 0.0 mm
15:34 36 °C 16.6 °C 1009.6 hPa ESE 14.8 km/h 27.8 km/h 31.9% 0.0 mm
15:39 36 °C 17.5 °C 1009.5 hPa ESE 14.6 km/h 27.4 km/h 33.7% 0.0 mm
15:44 35.9 °C 18.2 °C 1009.5 hPa ESE 13.7 km/h 28.6 km/h 35.4% 0.0 mm
15:49 35.7 °C 19 °C 1009.5 hPa ESE 14.3 km/h 29.6 km/h 37.5% 0.0 mm
15:54 35.6 °C 19 °C 1009.2 hPa ESE 16.4 km/h 29 km/h 37.9% 0.0 mm
15:59 35.6 °C 19.9 °C 1009.2 hPa ESE 16.2 km/h 25.9 km/h 39.8% 0.0 mm
16:04 35.6 °C 19.8 °C 1009.2 hPa ESE 15.6 km/h 28.2 km/h 39.6% 0.0 mm
16:09 35.6 °C 20.4 °C 1009.1 hPa ESE 15.8 km/h 30.6 km/h 41.1% 0.0 mm
16:14 35.7 °C 20.7 °C 1009.1 hPa ESE 16.4 km/h 30.6 km/h 41.9% 0.0 mm
16:19 35.7 °C 20.7 °C 1009.1 hPa ESE 16.3 km/h 26.2 km/h 41.8% 0.0 mm
16:24 35.6 °C 20.7 °C 1008.9 hPa ESE 16.1 km/h 29.6 km/h 42% 0.0 mm
16:29 35.7 °C 20.5 °C 1008.9 hPa ESE 16.2 km/h 29.6 km/h 41.3% 0.0 mm
16:34 35.7 °C 20.1 °C 1008.9 hPa ESE 16.4 km/h 29 km/h 40.3% 0.0 mm
16:39 35.8 °C 20.5 °C 1008.9 hPa SE 16.6 km/h 29.6 km/h 40.9% 0.0 mm
16:44 35.8 °C 19.9 °C 1008.9 hPa SE 17.2 km/h 33.3 km/h 39.6% 0.0 mm
16:49 35.8 °C 19.6 °C 1008.9 hPa ESE 17.4 km/h 33.8 km/h 38.6% 0.0 mm
16:54 36 °C 19.7 °C 1008.7 hPa Este 18 km/h 33.8 km/h 38.7% 0.0 mm
16:59 36.2 °C 19.1 °C 1008.7 hPa ESE 16.9 km/h 25.7 km/h 36.8% 0.0 mm
17:04 36.2 °C 18.7 °C 1008.7 hPa ESE 13.7 km/h 22.5 km/h 35.7% 0.0 mm
17:09 36.3 °C 18.3 °C 1008.7 hPa SE 13.3 km/h 29.6 km/h 34.8% 0.0 mm
17:14 36.4 °C 17.9 °C 1008.7 hPa ESE 12.2 km/h 29 km/h 33.7% 0.0 mm
17:19 36.5 °C 17.3 °C 1008.7 hPa ESE 13 km/h 27.8 km/h 32.3% 0.0 mm
17:24 36.6 °C 17.3 °C 1008.5 hPa ESE 15.6 km/h 25.9 km/h 32.1% 0.0 mm
17:29 36.7 °C 17.1 °C 1008.5 hPa SE 15.4 km/h 22.5 km/h 31.6% 0.0 mm
17:34 36.8 °C 16.8 °C 1008.5 hPa SE 14.8 km/h 23.7 km/h 30.7% 0.0 mm
17:39 36.9 °C 16.4 °C 1008.4 hPa ESE 14.8 km/h 24.5 km/h 29.9% 0.0 mm
17:44 36.9 °C 16.2 °C 1008.4 hPa SE 14.8 km/h 24.1 km/h 29.5% 0.0 mm
17:49 37 °C 16 °C 1008.4 hPa ESE 14.6 km/h 26.2 km/h 29% 0.0 mm
17:54 36.9 °C 15.8 °C 1008.3 hPa SE 14 km/h 25.9 km/h 28.6% 0.0 mm
17:59 36.9 °C 15.5 °C 1008.3 hPa SE 14.2 km/h 24.1 km/h 28.2% 0.0 mm
18:04 37 °C 15.4 °C 1008.3 hPa ESE 14.8 km/h 27.8 km/h 28% 0.0 mm
18:09 36.9 °C 15 °C 1008.3 hPa ESE 14.8 km/h 27.8 km/h 27.2% 0.0 mm
18:14 36.9 °C 14.3 °C 1008.3 hPa Este 14.8 km/h 24.1 km/h 26.1% 0.0 mm
18:19 37 °C 14.2 °C 1008.3 hPa SE 14.4 km/h 22.5 km/h 25.8% 0.0 mm
18:24 37.2 °C 13.8 °C 1008.2 hPa SE 13 km/h 25.9 km/h 25% 0.0 mm
18:29 37.2 °C 13.4 °C 1008.2 hPa ESE 13.2 km/h 25.7 km/h 24.2% 0.0 mm
18:34 37.1 °C 13.2 °C 1008.2 hPa ESE 13.7 km/h 28.2 km/h 24.1% 0.0 mm
18:39 36.9 °C 12.9 °C 1008.2 hPa ESE 14.4 km/h 27.4 km/h 23.9% 0.0 mm
18:44 36.9 °C 12.4 °C 1008.2 hPa ESE 17.2 km/h 25.9 km/h 23% 0.0 mm
18:49 36.9 °C 12.3 °C 1008.2 hPa ESE 16.8 km/h 24.5 km/h 23% 0.0 mm
18:54 36.9 °C 12 °C 1008.1 hPa SE 15.6 km/h 29.6 km/h 22.5% 0.0 mm
18:59 36.9 °C 11.7 °C 1008.1 hPa SE 15.8 km/h 33.3 km/h 22% 0.0 mm
19:04 36.8 °C 11.3 °C 1008.1 hPa SE 16.4 km/h 33.8 km/h 21.6% 0.0 mm
19:09 36.8 °C 11.6 °C 1008.0 hPa ESE 16.2 km/h 25.9 km/h 22% 0.0 mm
19:14 36.7 °C 11.5 °C 1008.0 hPa ESE 15.6 km/h 25.9 km/h 22% 0.0 mm
19:19 36.6 °C 11.4 °C 1008.0 hPa SE 15.2 km/h 25.7 km/h 22% 0.0 mm
19:24 36.6 °C 12.9 °C 1008.0 hPa SE 13.7 km/h 20.9 km/h 24.3% 0.0 mm
19:29 36.4 °C 13.8 °C 1008.0 hPa SE 13.3 km/h 22.5 km/h 26% 0.0 mm
19:34 36.3 °C 13.8 °C 1008.1 hPa SE 11.9 km/h 22.5 km/h 26.2% 0.0 mm
19:39 36.1 °C 13.5 °C 1008.1 hPa SE 11.7 km/h 22.5 km/h 26% 0.0 mm
19:44 35.9 °C 13.4 °C 1008.1 hPa SE 11.1 km/h 21.7 km/h 26% 0.0 mm
19:49 35.8 °C 13.8 °C 1008.2 hPa SE 10.9 km/h 22.5 km/h 26.8% 0.0 mm
19:54 35.7 °C 13.2 °C 1008.2 hPa SE 10.3 km/h 18.5 km/h 26% 0.0 mm
19:59 35.6 °C 13.2 °C 1008.2 hPa SE 9.6 km/h 19.3 km/h 26% 0.0 mm
20:04 35.5 °C 13.2 °C 1008.4 hPa SSE 7.6 km/h 12.9 km/h 26.2% 0.0 mm
20:09 35.4 °C 13 °C 1008.4 hPa SSE 7.3 km/h 11.9 km/h 26.1% 0.0 mm
20:14 35.3 °C 12.9 °C 1008.4 hPa SE 6.5 km/h 13.7 km/h 26% 0.0 mm
20:19 35.3 °C 13.4 °C 1008.5 hPa SSE 6.6 km/h 14.8 km/h 26.9% 0.0 mm
20:24 35.2 °C 13.3 °C 1008.5 hPa ESE 6.9 km/h 14.5 km/h 27% 0.0 mm
20:29 35.1 °C 13.3 °C 1008.5 hPa ESE 7.1 km/h 14.8 km/h 27.1% 0.0 mm
20:34 34.9 °C 13.7 °C 1008.5 hPa ENE 7.6 km/h 14.5 km/h 28% 0.0 mm
20:39 34.8 °C 13.9 °C 1008.4 hPa NNO 6.6 km/h 8 km/h 28.6% 0.0 mm
20:44 34.6 °C 16.2 °C 1008.4 hPa North 3.2 km/h 16.7 km/h 33.5% 0.0 mm
20:49 33.7 °C 16.4 °C 1008.5 hPa NE 4.7 km/h 20.4 km/h 35.6% 0.0 mm
20:54 33 °C 16.1 °C 1008.5 hPa NE 9.5 km/h 20.9 km/h 36.4% 0.0 mm
20:59 32.6 °C 15.8 °C 1008.5 hPa NE 9.9 km/h 20.9 km/h 36.5% 0.0 mm
21:04 32.3 °C 15.8 °C 1008.7 hPa NE 11.1 km/h 22.2 km/h 36.9% 0.0 mm
21:09 32.1 °C 16 °C 1008.7 hPa NE 11.4 km/h 22.5 km/h 38% 0.0 mm
21:14 31.8 °C 16 °C 1008.7 hPa NNE 12.2 km/h 20.9 km/h 38.7% 0.0 mm
21:19 31.7 °C 16.4 °C 1008.8 hPa NNE 11.8 km/h 19.3 km/h 39.9% 0.0 mm
21:24 31.3 °C 16.7 °C 1008.8 hPa NE 10 km/h 16.1 km/h 41.6% 0.0 mm
21:29 31 °C 17.2 °C 1008.8 hPa NNE 10 km/h 18.5 km/h 43.8% 0.0 mm
21:34 30.5 °C 17.8 °C 1008.9 hPa NNE 10.3 km/h 22.2 km/h 46.8% 0.0 mm
21:39 30 °C 18.2 °C 1008.9 hPa NNE 10.9 km/h 22.5 km/h 49% 0.0 mm
21:44 29.7 °C 18.5 °C 1008.9 hPa NE 13 km/h 19.3 km/h 50.9% 0.0 mm
21:49 29.5 °C 18.6 °C 1009.2 hPa NE 12.8 km/h 20.9 km/h 52% 0.0 mm
21:54 29.3 °C 18.7 °C 1009.2 hPa NNE 12.2 km/h 22.2 km/h 52.8% 0.0 mm
21:59 29.1 °C 18.8 °C 1009.2 hPa NE 12.6 km/h 22.5 km/h 54.1% 0.0 mm
22:04 28.8 °C 18.9 °C 1009.5 hPa NE 13.7 km/h 20.9 km/h 55% 0.0 mm
22:09 28.8 °C 18.9 °C 1009.5 hPa NNE 13.3 km/h 20.9 km/h 55.3% 0.0 mm
22:14 28.7 °C 19.1 °C 1009.5 hPa NNE 11.9 km/h 20.9 km/h 56% 0.0 mm
22:19 28.7 °C 19 °C 1009.7 hPa NE 12 km/h 19.8 km/h 56.1% 0.0 mm
22:24 28.5 °C 19.2 °C 1009.7 hPa NNE 12.2 km/h 20.9 km/h 57% 0.0 mm
22:29 28.4 °C 19.2 °C 1009.7 hPa NNE 12.2 km/h 20.9 km/h 57.7% 0.0 mm
22:34 28.3 °C 19.2 °C 1010.0 hPa NE 12.2 km/h 20.9 km/h 58% 0.0 mm
22:39 28.2 °C 19.2 °C 1010.0 hPa NE 12.2 km/h 20.9 km/h 58% 0.0 mm
22:44 28.1 °C 19.5 °C 1010.0 hPa NNE 12.2 km/h 19.3 km/h 59.5% 0.0 mm
22:49 28 °C 19.8 °C 1010.3 hPa NE 12.2 km/h 20.4 km/h 61.1% 0.0 mm
22:54 27.9 °C 20.1 °C 1010.3 hPa NNE 11.9 km/h 20.9 km/h 62.5% 0.0 mm
22:59 27.8 °C 20.4 °C 1010.3 hPa NE 11.9 km/h 20.9 km/h 64.1% 0.0 mm
23:04 27.8 °C 20.9 °C 1010.3 hPa NE 11.9 km/h 19.3 km/h 66.1% 0.0 mm
23:09 27.7 °C 21 °C 1010.3 hPa NNE 11.9 km/h 19.3 km/h 67.3% 0.0 mm
23:14 27.6 °C 21.3 °C 1010.3 hPa NNE 11.9 km/h 19.3 km/h 68.5% 0.0 mm
23:19 27.6 °C 21.5 °C 1010.4 hPa NNE 11.4 km/h 14.8 km/h 69.8% 0.0 mm
23:24 27.4 °C 21.7 °C 1010.4 hPa NNE 9.5 km/h 18 km/h 70.9% 0.0 mm
23:29 27.4 °C 22 °C 1010.4 hPa NNE 9.7 km/h 19.3 km/h 72.5% 0.0 mm
23:34 27.3 °C 22.2 °C 1010.6 hPa NNE 10.3 km/h 17.2 km/h 73.6% 0.0 mm
23:39 27.2 °C 22.3 °C 1010.6 hPa NNE 10.2 km/h 17.7 km/h 74.6% 0.0 mm
23:44 27.2 °C 22.3 °C 1010.6 hPa NNE 10 km/h 16.7 km/h 75% 0.0 mm
23:49 27.1 °C 22.4 °C 1010.6 hPa NE 9.9 km/h 16.4 km/h 75.7% 0.0 mm
23:54 26.9 °C 22.4 °C 1010.5 hPa NNE 9.5 km/h 16.7 km/h 76.2% 0.0 mm
23:59 26.9 °C 22.5 °C 1010.5 hPa NNE 9.5 km/h 14.8 km/h 77% 0.0 mm
Murcia-Puente Tocinos, Espa?a
Compliments of Weather Underground - 3 mb

La estación de MeteoMurcia.com, publica sus datos en los siguientes proyectos:

Weather Underground PWS IMURCIAP2 Meteoclimatic www.awekas.at

Web Analytics

Clicky